Time;durP1;ratioP1;P1;durP2;ratioP2;P2;SDS_P1;SDS_P2;PMS_P1;PMS_P2;Temp;Humidity;BMP_temperature;BMP_pressure;BME280_temperature;BME280_humidity;BME280_pressure;Samples;Min_cycle;Max_cycle;Signal;HPM_P1;HPM_P2
2023/06/20 00:01:49;;;;;;;5.55;3.22;;;;;;;18.48;100.00;100483.22;4987907;28;20034;-71
2023/06/20 00:04:14;;;;;;;4.40;2.83;;;;;;;18.07;100.00;100415.44;4987401;28;20034;-71
2023/06/20 00:06:40;;;;;;;4.68;2.85;;;;;;;18.06;100.00;100403.94;4987309;28;20117;-73
2023/06/20 00:09:05;;;;;;;4.03;2.67;;;;;;;18.66;100.00;100508.34;4987745;28;20092;-73
2023/06/20 00:11:31;;;;;;;6.15;3.08;;;;;;;17.73;100.00;100350.94;4986617;28;20089;-73
2023/06/20 00:13:57;;;;;;;6.95;4.10;;;;;;;18.30;100.00;100452.75;4987943;28;20030;-73
2023/06/20 00:16:24;;;;;;;7.57;2.95;;;;;;;18.73;100.00;100528.50;4989987;28;20038;-73
2023/06/20 00:18:53;;;;;;;5.82;3.22;;;;;;;17.99;100.00;100409.50;4988491;28;20061;-73
2023/06/20 00:21:21;;;;;;;9.20;2.30;;;;;;;18.37;100.00;100476.50;4987322;28;20144;-72
2023/06/20 00:23:47;;;;;;;5.50;3.28;;;;;;;17.95;100.00;100402.53;4978082;28;20069;-72
2023/06/20 00:26:12;;;;;;;4.57;3.15;;;;;;;18.72;100.00;100512.59;4998872;28;20450;-72
2023/06/20 00:28:37;;;;;;;6.82;4.07;;;;;;;17.71;100.00;100331.53;4967948;28;20042;-73
2023/06/20 00:31:04;;;;;;;11.73;4.43;;;;;;;18.75;100.00;100529.31;4984219;28;20038;-73
2023/06/20 00:33:30;;;;;;;6.03;3.17;;;;;;;18.03;100.00;100395.22;4987116;28;20149;-73
2023/06/20 00:35:55;;;;;;;4.47;3.10;;;;;;;18.74;100.00;100530.22;4988465;28;20407;-72
2023/06/20 00:38:20;;;;;;;4.60;2.78;;;;;;;18.30;100.00;100449.25;4986769;28;20034;-72
2023/06/20 00:40:46;;;;;;;4.13;2.78;;;;;;;18.13;100.00;100417.91;4986920;28;20034;-73
2023/06/20 00:43:12;;;;;;;5.22;3.28;;;;;;;18.26;100.00;100435.22;4985541;28;20626;-73
2023/06/20 00:45:38;;;;;;;5.82;3.47;;;;;;;18.51;100.00;100488.41;4987151;28;20038;-72
2023/06/20 00:48:06;;;;;;;6.07;3.60;;;;;;;17.73;100.00;100373.97;4974181;28;20081;-71
2023/06/20 00:50:33;;;;;;;5.03;3.00;;;;;;;18.54;100.00;100516.69;4986282;28;20036;-72
2023/06/20 00:53:05;;;;;;;4.53;2.97;;;;;;;18.20;100.00;100466.41;4982915;28;20800;-73
2023/06/20 00:55:33;;;;;;;6.85;4.07;;;;;;;18.41;100.00;100518.00;4986331;28;20042;-72
2023/06/20 00:58:02;;;;;;;6.53;3.88;;;;;;;18.19;100.00;100469.94;4986413;28;20042;-73
2023/06/20 01:00:32;;;;;;;4.47;2.88;;;;;;;18.40;100.00;100489.69;4986335;28;20117;-72
2023/06/20 01:03:12;;;;;;;8.63;4.00;;;;;;;18.38;100.00;100504.78;4987005;28;20042;-72
2023/06/20 01:05:39;;;;;;;17.60;4.28;;;;;;;17.93;100.00;100455.66;4986421;28;20569;-72
2023/06/20 01:08:22;;;;;;;4.55;3.28;;;;;;;18.27;100.00;100523.72;4986952;28;20108;-72
2023/06/20 01:11:09;;;;;;;5.65;3.67;;;;;;;18.38;100.00;100524.28;4986082;28;20490;-71
2023/06/20 01:13:54;;;;;;;6.10;3.83;;;;;;;18.51;100.00;100515.00;4986802;28;20062;-72
2023/06/20 01:16:30;;;;;;;6.35;3.88;;;;;;;18.08;100.00;100425.16;4986691;28;20030;-73
2023/06/20 01:19:13;;;;;;;5.68;3.92;;;;;;;18.56;100.00;100513.06;4986995;28;20030;-73
2023/06/20 01:21:49;;;;;;;7.93;4.85;;;;;;;18.32;100.00;100479.28;4972422;28;20493;-73
2023/06/20 01:24:21;;;;;;;5.43;3.20;;;;;;;18.64;100.00;100517.28;4990925;28;20027;-73
2023/06/20 01:26:56;;;;;;;6.13;4.50;;;;;;;17.43;100.00;100373.94;4990421;28;20026;-72
2023/06/20 01:29:46;;;;;;;7.32;4.88;;;;;;;17.69;100.00;100414.78;4990254;28;20555;-73
2023/06/20 01:32:18;;;;;;;7.30;5.00;;;;;;;18.05;100.00;100507.53;4990414;28;20125;-73
2023/06/20 01:34:56;;;;;;;7.68;4.47;;;;;;;17.57;100.00;100429.25;4990197;28;20034;-73
2023/06/20 01:37:23;;;;;;;7.25;5.68;;;;;;;17.96;100.00;100492.78;4990397;28;20026;-72
2023/06/20 01:39:56;;;;;;;8.43;5.50;;;;;;;18.19;100.00;100518.66;5022034;28;20042;-73
2023/06/20 01:42:24;;;;;;;6.03;4.32;;;;;;;17.59;100.00;100431.88;4990682;28;20038;-72
2023/06/20 01:44:53;;;;;;;7.13;5.65;;;;;;;17.96;100.00;100497.19;4989003;28;20042;-72
2023/06/20 01:47:21;;;;;;;7.22;4.75;;;;;;;17.38;100.00;100436.00;4990243;28;20046;-73
2023/06/20 01:49:51;;;;;;;7.60;5.03;;;;;;;17.85;100.00;100529.38;4989449;28;20022;-73
2023/06/20 01:52:19;;;;;;;7.93;5.57;;;;;;;18.11;100.00;100541.91;4990355;28;20080;-73
2023/06/20 01:54:47;;;;;;;10.70;5.30;;;;;;;17.69;100.00;100523.59;4990030;28;20038;-73
2023/06/20 01:57:16;;;;;;;7.03;4.28;;;;;;;17.67;100.00;100533.38;4988445;28;20062;-72
2023/06/20 01:59:43;;;;;;;6.82;4.60;;;;;;;17.68;100.00;100497.97;4990151;28;20498;-72
2023/06/20 02:02:10;;;;;;;7.47;4.85;;;;;;;17.33;100.00;100449.41;4990023;28;20483;-73
2023/06/20 02:04:37;;;;;;;6.40;4.53;;;;;;;17.61;100.00;100530.91;4988651;28;20502;-73
2023/06/20 02:07:05;;;;;;;6.75;4.55;;;;;;;16.90;100.00;100445.22;4989751;28;20068;-73
2023/06/20 02:09:33;;;;;;;5.95;4.68;;;;;;;17.41;100.00;100544.69;4989876;28;20041;-73
2023/06/20 02:12:00;;;;;;;15.93;5.82;;;;;;;16.80;100.00;100433.13;4990053;28;20117;-73
2023/06/20 02:14:25;;;;;;;7.22;4.63;;;;;;;17.68;100.00;100519.19;4989522;28;20034;-72
2023/06/20 02:16:52;;;;;;;6.25;4.25;;;;;;;17.90;100.00;100543.38;4988127;28;20367;-73
2023/06/20 02:19:18;;;;;;;6.68;5.03;;;;;;;17.27;100.00;100428.34;4989342;28;20045;-73
2023/06/20 02:21:46;;;;;;;7.28;4.55;;;;;;;17.81;100.00;100514.44;4988784;28;20026;-72
2023/06/20 02:24:21;;;;;;;10.65;3.75;;;;;;;17.42;100.00;100429.69;4987857;28;20463;-72
2023/06/20 02:26:47;;;;;;;6.13;4.30;;;;;;;18.06;100.00;100526.09;4989609;28;20059;-72
2023/06/20 02:29:15;;;;;;;6.75;4.45;;;;;;;17.50;100.00;100439.19;4989014;28;20046;-72
2023/06/20 02:31:46;;;;;;;5.38;3.15;;;;;;;17.05;100.00;100396.25;4989193;28;20142;-72
2023/06/20 02:34:20;;;;;;;7.95;3.22;;;;;;;17.04;100.00;100439.56;4988352;28;20045;-73
2023/06/20 02:36:47;;;;;;;7.75;4.88;;;;;;;17.55;100.00;100496.56;4987789;28;20085;-72
2023/06/20 02:39:13;;;;;;;7.25;3.85;;;;;;;17.60;100.00;100514.09;4987278;28;20416;-73
2023/06/20 02:41:42;;;;;;;7.35;4.72;;;;;;;17.27;100.00;100466.31;4989196;28;20034;-72
2023/06/20 02:44:07;;;;;;;7.50;4.53;;;;;;;17.20;100.00;100411.72;4989116;28;20041;-72
2023/06/20 02:46:51;;;;;;;6.85;3.90;;;;;;;18.12;100.00;100549.84;4986681;28;20046;-73
2023/06/20 02:49:19;;;;;;;5.88;3.63;;;;;;;18.23;100.00;100552.16;4988496;28;20057;-72
2023/06/20 02:52:05;;;;;;;7.13;3.30;;;;;;;18.26;100.00;100557.41;4987737;28;20034;-72
2023/06/20 02:54:36;;;;;;;5.80;3.88;;;;;;;17.73;100.00;100461.53;4988393;28;20049;-72
2023/06/20 02:57:06;;;;;;;7.68;4.50;;;;;;;18.07;100.00;100514.53;4988016;28;20050;-72
2023/06/20 02:59:35;;;;;;;5.50;3.47;;;;;;;18.33;100.00;100548.34;4988298;28;20030;-71
2023/06/20 03:02:06;;;;;;;6.75;4.78;;;;;;;17.67;100.00;100422.75;4986846;28;20178;-74
2023/06/20 03:04:33;;;;;;;10.07;2.88;;;;;;;18.30;100.00;100544.88;4988483;28;20038;-73
2023/06/20 03:07:01;;;;;;;7.82;4.90;;;;;;;18.23;100.00;100532.69;4990514;28;20038;-73
2023/06/20 03:09:29;;;;;;;6.53;3.08;;;;;;;18.40;100.00;100548.13;4989875;28;20027;-72
2023/06/20 03:11:54;;;;;;;5.13;2.88;;;;;;;18.34;100.00;100566.00;4988443;28;20042;-72
2023/06/20 03:14:20;;;;;;;6.38;3.92;;;;;;;18.39;100.00;100557.91;4977159;28;20089;-73
2023/06/20 03:16:46;;;;;;;6.78;3.63;;;;;;;18.47;100.00;100561.22;4986004;28;20553;-72
2023/06/20 03:19:11;;;;;;;8.68;5.97;;;;;;;18.40;100.00;100551.66;4986374;28;20035;-72
2023/06/20 03:21:40;;;;;;;4.90;3.33;;;;;;;18.26;100.00;100565.38;4987541;28;20465;-72
2023/06/20 03:24:08;;;;;;;7.93;3.83;;;;;;;18.26;100.00;100548.53;4988269;28;20293;-73
2023/06/20 03:26:33;;;;;;;6.25;3.17;;;;;;;18.31;100.00;100528.03;4986373;28;20038;-72
2023/06/20 03:28:59;;;;;;;4.95;3.15;;;;;;;18.24;100.00;100556.56;4986250;28;20038;-73
2023/06/20 03:31:26;;;;;;;6.65;5.75;;;;;;;17.74;100.00;100489.81;4987341;28;20046;-73
2023/06/20 03:33:51;;;;;;;6.97;3.22;;;;;;;17.65;100.00;100490.06;4987751;28;20038;-73
2023/06/20 03:36:17;;;;;;;11.70;3.35;;;;;;;17.90;100.00;100540.72;4987988;28;20489;-74
2023/06/20 03:38:42;;;;;;;5.60;4.30;;;;;;;18.07;100.00;100578.28;4987893;28;20213;-73
2023/06/20 03:41:08;;;;;;;6.25;3.70;;;;;;;17.53;100.00;100496.59;4987481;28;20050;-72
2023/06/20 03:43:34;;;;;;;6.28;3.42;;;;;;;17.76;100.00;100538.41;4986333;28;20445;-73
2023/06/20 03:45:59;;;;;;;6.18;4.53;;;;;;;17.62;100.00;100508.75;5018329;28;20038;-73
2023/06/20 03:48:25;;;;;;;10.93;5.00;;;;;;;18.02;100.00;100595.28;4987924;28;20030;-72
2023/06/20 03:50:51;;;;;;;5.75;4.03;;;;;;;17.65;100.00;100567.03;4987242;28;20546;-74
2023/06/20 03:53:16;;;;;;;6.25;3.72;;;;;;;17.69;100.00;100593.44;4970214;28;20046;-73
2023/06/20 03:55:42;;;;;;;7.50;4.25;;;;;;;17.59;100.00;100551.28;4967803;28;20427;-73
2023/06/20 03:58:08;;;;;;;6.88;4.20;;;;;;;17.20;100.00;100501.00;4967799;28;20030;-73
2023/06/20 04:00:33;;;;;;;8.20;5.25;;;;;;;17.90;100.00;100621.25;4973115;28;20077;-72
2023/06/20 04:02:59;;;;;;;8.60;5.20;;;;;;;17.80;100.00;100598.47;4987376;28;20030;-73
2023/06/20 04:05:25;;;;;;;7.55;4.05;;;;;;;17.88;100.00;100616.88;4986795;28;20044;-73
2023/06/20 04:07:50;;;;;;;7.82;4.65;;;;;;;17.94;100.00;100622.03;4985508;28;20038;-73
2023/06/20 04:10:16;;;;;;;7.85;4.70;;;;;;;17.75;100.00;100589.78;4987428;28;20130;-73
2023/06/20 04:12:42;;;;;;;5.18;3.70;;;;;;;17.58;100.00;100558.34;4986879;28;20028;-73
2023/06/20 04:15:08;;;;;;;7.70;6.43;;;;;;;18.19;100.00;100645.25;4987376;28;20072;-74
2023/06/20 04:17:34;;;;;;;9.38;6.80;;;;;;;17.88;100.00;100612.44;4985616;28;20034;-73
2023/06/20 04:20:04;;;;;;;9.57;5.75;;;;;;;18.21;100.00;100635.47;5017501;28;20129;-72
2023/06/20 04:22:29;;;;;;;6.03;4.10;;;;;;;17.55;100.00;100516.00;4987029;28;20057;-72
2023/06/20 04:24:59;;;;;;;7.55;4.20;;;;;;;17.42;100.00;100514.56;4986995;28;20518;-73
2023/06/20 04:27:24;;;;;;;7.70;4.97;;;;;;;18.28;100.00;100669.78;4986541;28;20038;-73
2023/06/20 04:29:50;;;;;;;7.70;5.43;;;;;;;18.00;100.00;100610.38;4987222;28;20088;-72
2023/06/20 04:32:17;;;;;;;7.55;5.25;;;;;;;18.31;100.00;100644.94;4987165;28;20038;-72
2023/06/20 04:34:43;;;;;;;8.15;6.72;;;;;;;18.35;100.00;100663.41;4986513;28;20112;-72
2023/06/20 04:37:09;;;;;;;6.75;4.93;;;;;;;18.47;100.00;100675.47;4986693;28;20062;-73
2023/06/20 04:39:34;;;;;;;7.50;6.70;;;;;;;17.93;100.00;100584.00;4987006;28;20037;-73
2023/06/20 04:42:00;;;;;;;9.00;4.50;;;;;;;17.82;100.00;100580.78;4986985;28;20038;-72
2023/06/20 04:44:25;;;;;;;9.82;6.65;;;;;;;17.96;100.00;100592.78;4986809;28;20096;-73
2023/06/20 04:46:54;;;;;;;8.85;6.70;;;;;;;18.18;100.00;100593.94;4986646;28;20061;-72
2023/06/20 04:49:20;;;;;;;10.70;6.03;;;;;;;18.45;100.00;100639.19;4986942;28;20038;-74
2023/06/20 04:51:47;;;;;;;7.65;5.63;;;;;;;18.17;100.00;100575.38;4985516;28;20037;-72
2023/06/20 04:54:12;;;;;;;9.50;5.50;;;;;;;18.90;100.00;100679.56;4986677;28;20122;-72
2023/06/20 04:56:40;;;;;;;14.60;5.63;;;;;;;18.88;100.00;100662.78;4986506;28;20138;-73
2023/06/20 04:59:09;;;;;;;14.25;6.68;;;;;;;19.04;100.00;100668.50;4990928;28;20354;-74
2023/06/20 05:01:34;;;;;;;13.48;6.65;;;;;;;19.07;100.00;100662.22;4973139;28;20150;-73
2023/06/20 05:04:03;;;;;;;15.32;5.78;;;;;;;19.09;100.00;100639.97;4990349;28;20037;-73
2023/06/20 05:06:29;;;;;;;7.95;5.20;;;;;;;19.19;100.00;100670.66;4990597;28;20048;-74
2023/06/20 05:08:55;;;;;;;9.65;5.55;;;;;;;18.37;100.00;100517.22;4990999;28;20046;-73
2023/06/20 05:11:20;;;;;;;8.27;5.70;;;;;;;18.72;100.00;100560.44;4990634;28;20030;-72
2023/06/20 05:13:46;;;;;;;13.07;5.57;;;;;;;18.68;100.00;100533.09;4990039;28;20038;-73
2023/06/20 05:16:11;;;;;;;9.55;5.93;;;;;;;19.36;100.00;100616.03;4989898;28;20045;-73
2023/06/20 05:18:37;;;;;;;9.48;5.35;;;;;;;20.02;100.00;100641.31;4990209;28;20034;-73
2023/06/20 05:21:02;;;;;;;8.15;5.75;;;;;;;20.64;100.00;100645.28;4988728;28;20141;-74
2023/06/20 05:23:29;;;;;;;7.63;4.68;;;;;;;21.13;100.00;100631.81;4989794;28;20031;-73
2023/06/20 05:25:54;;;;;;;8.38;5.68;;;;;;;21.33;100.00;100607.00;4989449;28;20081;-72
2023/06/20 05:28:20;;;;;;;7.40;4.43;;;;;;;21.31;100.00;100559.97;4989632;28;20650;-73
2023/06/20 05:30:46;;;;;;;7.88;5.53;;;;;;;21.69;100.00;100518.25;4989936;28;20038;-73
2023/06/20 05:33:12;;;;;;;9.52;4.93;;;;;;;22.17;100.00;100559.72;4989895;28;20037;-73
2023/06/20 05:35:38;;;;;;;5.55;4.05;;;;;;;21.77;100.00;100549.97;4990255;28;20046;-72
2023/06/20 05:38:03;;;;;;;5.43;3.60;;;;;;;21.60;100.00;100513.31;4989556;28;20379;-74
2023/06/20 05:40:30;;;;;;;5.50;4.22;;;;;;;22.54;100.00;100633.78;5020989;28;20150;-72
2023/06/20 05:42:56;;;;;;;5.93;3.92;;;;;;;21.71;100.00;100591.19;4989518;28;20139;-72
2023/06/20 05:45:22;;;;;;;6.78;3.97;;;;;;;21.78;100.00;100646.09;4989112;28;20442;-72
2023/06/20 05:47:47;;;;;;;6.57;4.45;;;;;;;21.35;100.00;100634.47;4989678;28;20042;-73
2023/06/20 05:50:13;;;;;;;8.05;5.07;;;;;;;21.14;100.00;100603.34;4988535;28;20026;-73
2023/06/20 05:52:38;;;;;;;6.82;5.22;;;;;;;21.25;100.00;100625.97;5020550;28;20026;-73
2023/06/20 05:55:05;;;;;;;7.10;4.38;;;;;;;21.39;100.00;100643.25;4989531;28;20037;-73
2023/06/20 05:57:30;;;;;;;8.25;3.88;;;;;;;20.77;100.00;100555.03;4991794;28;20037;-73
2023/06/20 05:59:56;;;;;;;6.75;4.40;;;;;;;21.16;100.00;100617.50;4991937;28;20038;-73
2023/06/20 06:02:22;;;;;;;5.68;3.90;;;;;;;21.04;100.00;100483.63;4989619;28;20038;-73
2023/06/20 06:04:50;;;;;;;4.43;3.03;;;;;;;22.25;100.00;100632.47;4989083;28;20459;-73
2023/06/20 06:07:15;;;;;;;8.43;3.83;;;;;;;22.87;100.00;100651.03;4987379;28;20035;-73
2023/06/20 06:09:41;;;;;;;4.70;3.13;;;;;;;22.14;100.00;100584.78;4988178;28;20534;-72
2023/06/20 06:12:07;;;;;;;9.20;3.92;;;;;;;22.55;100.00;100658.75;4989031;28;20387;-72
2023/06/20 06:14:32;;;;;;;5.70;3.45;;;;;;;22.17;100.00;100658.63;4988680;28;20441;-73
2023/06/20 06:16:58;;;;;;;8.05;4.25;;;;;;;21.16;100.00;100621.03;4988966;28;20065;-72
2023/06/20 06:19:24;;;;;;;14.93;3.88;;;;;;;20.88;100.00;100597.25;4988682;28;20041;-72
2023/06/20 06:21:49;;;;;;;6.03;3.72;;;;;;;20.99;100.00;100583.50;4988735;28;20030;-72
2023/06/20 06:24:15;;;;;;;5.05;3.47;;;;;;;21.75;100.00;100694.31;4987713;28;20047;-73
2023/06/20 06:26:40;;;;;;;4.93;3.20;;;;;;;20.62;100.00;100620.47;4987367;28;20525;-73
2023/06/20 06:29:06;;;;;;;9.32;3.40;;;;;;;21.58;100.00;100675.44;4988981;28;20473;-73
2023/06/20 06:31:35;;;;;;;5.38;3.45;;;;;;;22.77;100.00;100691.59;4988685;28;20029;-73
2023/06/20 06:34:04;;;;;;;10.05;4.78;;;;;;;22.61;100.00;100621.00;4988636;28;20034;-73
2023/06/20 06:36:31;;;;;;;5.55;4.07;;;;;;;22.37;100.00;100697.03;4987371;28;20438;-73
2023/06/20 06:38:57;;;;;;;4.85;3.13;;;;;;;22.26;100.00;100673.44;4988294;28;20105;-72
2023/06/20 06:41:23;;;;;;;5.70;3.22;;;;;;;21.83;100.00;100611.16;4988756;28;20034;-73
2023/06/20 06:43:49;;;;;;;5.88;3.55;;;;;;;22.61;100.00;100687.88;4988542;28;20036;-72
2023/06/20 06:46:14;;;;;;;4.50;3.17;;;;;;;22.48;100.00;100706.31;4988098;28;20034;-72
2023/06/20 06:48:40;;;;;;;4.93;3.58;;;;;;;22.31;100.00;100597.44;4988566;28;20038;-73
2023/06/20 06:51:06;;;;;;;7.95;5.60;;;;;;;23.06;100.00;100708.16;4988307;28;20140;-73
2023/06/20 06:53:32;;;;;;;5.40;3.90;;;;;;;23.14;100.00;100684.53;4988389;28;20043;-72
2023/06/20 06:55:57;;;;;;;13.48;4.57;;;;;;;23.08;100.00;100593.81;4986947;28;20544;-73
2023/06/20 06:58:23;;;;;;;5.90;5.30;;;;;;;23.07;100.00;100609.97;4987765;28;20546;-73
2023/06/20 07:00:48;;;;;;;3.47;2.78;;;;;;;23.50;100.00;100707.78;4987611;28;20057;-72
2023/06/20 07:03:15;;;;;;;6.68;3.88;;;;;;;23.26;100.00;100698.28;4988297;28;20030;-73
2023/06/20 07:05:40;;;;;;;8.68;5.38;;;;;;;23.14;100.00;100705.09;4988238;28;20439;-73
2023/06/20 07:08:06;;;;;;;6.22;3.88;;;;;;;23.26;100.00;100680.41;4986931;28;20069;-73
2023/06/20 07:10:32;;;;;;;4.95;3.22;;;;;;;23.09;100.00;100683.91;4986602;28;20107;-73
2023/06/20 07:12:57;;;;;;;7.15;4.75;;;;;;;22.94;100.00;100681.91;4986983;28;20042;-73
2023/06/20 07:15:22;;;;;;;6.50;4.65;;;;;;;21.90;100.00;100599.25;4987904;28;20036;-72
2023/06/20 07:17:48;;;;;;;10.80;3.75;;;;;;;21.58;100.00;100603.31;4987961;28;20026;-72
2023/06/20 07:20:13;;;;;;;7.03;4.07;;;;;;;22.36;100.00;100674.78;4985083;28;20050;-71
2023/06/20 07:22:39;;;;;;;6.88;3.80;;;;;;;22.18;100.00;100611.41;4988370;28;20117;-72
2023/06/20 07:25:06;;;;;;;9.13;6.00;;;;;;;22.44;100.00;100666.41;4988129;28;20391;-72
2023/06/20 07:27:32;;;;;;;6.22;4.20;;;;;;;22.31;100.00;100684.78;4988113;28;20039;-72
2023/06/20 07:29:57;;;;;;;11.80;4.43;;;;;;;22.07;100.00;100689.38;4987880;28;20030;-72
2023/06/20 07:32:22;;;;;;;4.93;3.83;;;;;;;21.07;100.00;100582.25;4987874;28;20034;-72
2023/06/20 07:34:48;;;;;;;5.68;4.38;;;;;;;21.88;100.00;100655.44;4987998;28;20822;-72
2023/06/20 07:37:14;;;;;;;5.78;3.03;;;;;;;21.35;100.00;100676.31;4986649;28;20046;-72
2023/06/20 07:39:42;;;;;;;6.20;3.55;;;;;;;21.31;100.00;100672.06;4987875;28;20148;-72
2023/06/20 07:42:08;;;;;;;8.07;3.60;;;;;;;21.25;100.00;100638.47;4987989;28;20041;-72
2023/06/20 07:44:34;;;;;;;4.75;3.10;;;;;;;21.64;100.00;100657.34;4987821;28;20050;-72
2023/06/20 07:46:59;;;;;;;7.75;3.30;;;;;;;21.31;100.00;100598.19;4987580;28;20041;-74
2023/06/20 07:49:25;;;;;;;5.85;4.00;;;;;;;21.69;100.00;100614.41;4986523;28;20505;-72
2023/06/20 07:51:51;;;;;;;7.47;4.72;;;;;;;21.60;100.00;100559.59;4986804;28;20038;-73
2023/06/20 07:54:16;;;;;;;8.35;5.05;;;;;;;22.64;100.00;100653.00;4986287;28;20038;-72
2023/06/20 07:56:42;;;;;;;6.65;4.60;;;;;;;22.96;100.00;100659.47;4987042;28;20050;-73
2023/06/20 07:59:07;;;;;;;8.10;3.75;;;;;;;23.55;100.00;100657.56;4986102;28;20034;-74
2023/06/20 08:01:33;;;;;;;5.65;4.47;;;;;;;23.39;100.00;100565.53;4985973;28;20039;-73
2023/06/20 08:03:58;;;;;;;4.60;3.38;;;;;;;23.61;100.00;100565.28;4987333;28;20037;-73
2023/06/20 08:06:24;;;;;;;7.25;4.25;;;;;;;24.45;100.00;100672.59;4987603;28;20030;-72
2023/06/20 08:08:49;;;;;;;13.60;4.95;;;;;;;24.61;100.00;100678.03;4987505;28;20081;-72
2023/06/20 08:11:22;;;;;;;6.03;4.60;;;;;;;24.68;100.00;100644.56;4987569;28;20041;-74
2023/06/20 08:13:48;;;;;;;;;;;;;;;24.58;100.00;100671.03;4986518;28;20035;-73
2023/06/20 08:16:13;;;;;;;5.47;4.10;;;;;;;25.24;100.00;100669.22;4968327;28;19928;-73
2023/06/20 08:18:39;;;;;;;5.47;3.72;;;;;;;23.12;100.00;100582.00;4968588;28;20031;-73
2023/06/20 08:21:04;;;;;;;6.78;5.22;;;;;;;24.19;100.00;100580.13;4979934;28;20756;-72
2023/06/20 08:23:30;;;;;;;7.63;4.38;;;;;;;24.66;100.00;100634.84;4987292;28;20033;-73
2023/06/20 08:25:56;;;;;;;5.13;3.80;;;;;;;25.49;100.00;100682.06;5018655;28;20038;-73
2023/06/20 08:28:22;;;;;;;7.95;3.90;;;;;;;25.27;100.00;100591.97;4987392;28;20049;-73
2023/06/20 08:30:48;;;;;;;5.03;3.17;;;;;;;25.05;100.00;100604.88;4987516;28;20382;-73
2023/06/20 08:33:14;;;;;;;3.60;2.53;;;;;;;23.88;100.00;100595.19;4989706;28;20050;-73
2023/06/20 08:35:39;;;;;;;4.13;3.03;;;;;;;23.95;100.00;100690.41;4990774;28;20121;-72
2023/06/20 08:38:05;;;;;;;5.38;3.78;;;;;;;24.31;100.00;100699.28;4990853;28;20030;-73
2023/06/20 08:40:31;;;;;;;5.43;3.50;;;;;;;23.37;100.00;100674.53;4990856;28;20034;-73
2023/06/20 08:42:58;;;;;;;12.23;4.70;;;;;;;22.54;100.00;100598.16;4990458;28;20469;-73
2023/06/20 08:45:23;;;;;;;3.97;2.25;;;;;;;23.14;100.00;100675.66;4990579;28;20249;-73
2023/06/20 08:47:49;;;;;;;5.68;3.67;;;;;;;23.31;100.00;100673.00;4990578;28;20052;-73
2023/06/20 08:50:14;;;;;;;3.78;3.05;;;;;;;23.99;100.00;100675.88;4990642;28;20096;-73
2023/06/20 08:52:47;;;;;;;7.80;4.28;;;;;;;25.54;100.00;100712.22;4994141;28;20053;-73
2023/06/20 08:55:14;;;;;;;3.23;2.33;;;;;;;25.42;100.00;100735.28;4993687;28;20034;-73
2023/06/20 08:57:40;;;;;;;8.35;3.05;;;;;;;24.86;100.00;100626.53;4990581;28;20468;-73
2023/06/20 09:00:10;;;;;;;4.75;2.63;;;;;;;24.98;100.00;100631.25;4990506;28;20041;-72
2023/06/20 09:02:36;;;;;;;5.00;3.38;;;;;;;24.80;100.00;100721.72;4977980;28;20031;-73
2023/06/20 09:05:02;;;;;;;2.88;1.95;;;;;;;24.58;100.00;100619.16;4988546;28;20030;-73
2023/06/20 09:07:37;;;;;;;6.25;3.42;;;;;;;25.51;100.00;100685.53;4990485;28;20062;-72
2023/06/20 09:10:08;;;;;;;3.80;2.85;;;;;;;25.80;96.30;100619.31;4989463;28;20487;-72
2023/06/20 09:12:53;;;;;;;6.57;4.05;;;;;;;25.89;100.00;100690.50;4990310;28;20085;-73
2023/06/20 09:15:21;;;;;;;4.80;3.22;;;;;;;25.81;100.00;100649.75;4988477;28;20057;-73
2023/06/20 09:17:54;;;;;;;6.05;3.55;;;;;;;25.48;100.00;100630.16;4990325;28;20542;-73
2023/06/20 09:20:20;;;;;;;4.72;2.88;;;;;;;25.63;96.22;100614.94;4989736;28;20153;-73
2023/06/20 09:22:46;;;;;;;5.22;3.30;;;;;;;26.08;100.00;100669.66;4996708;28;20457;-73
2023/06/20 09:25:12;;;;;;;5.30;2.63;;;;;;;27.32;96.84;100673.56;4990050;28;20045;-73
2023/06/20 09:27:41;;;;;;;3.20;2.15;;;;;;;26.47;94.61;100680.72;4988994;28;20034;-72
2023/06/20 09:30:08;;;;;;;4.82;2.83;;;;;;;26.24;80.45;100588.84;4989780;28;20083;-72
2023/06/20 09:32:40;;;;;;;3.25;2.47;;;;;;;26.59;76.59;100607.31;4988192;28;20387;-73
2023/06/20 09:35:11;;;;;;;4.32;3.15;;;;;;;27.58;77.87;100661.91;4988309;28;20501;-73
2023/06/20 09:37:38;;;;;;;4.75;2.78;;;;;;;27.68;74.47;100539.97;4988702;28;20034;-73
2023/06/20 09:40:11;;;;;;;5.57;3.45;;;;;;;29.09;78.00;100678.41;4988223;28;20431;-73
2023/06/20 09:42:39;;;;;;;3.80;2.25;;;;;;;27.70;70.37;100637.78;4988131;28;20058;-74
2023/06/20 09:45:07;;;;;;;5.03;3.05;;;;;;;27.29;76.90;100568.66;4987968;28;20033;-74
2023/06/20 09:47:35;;;;;;;5.47;3.55;;;;;;;26.98;75.50;100651.50;4989170;28;20038;-73
2023/06/20 09:50:05;;;;;;;4.93;2.17;;;;;;;28.42;75.79;100660.66;4988451;28;20080;-73
2023/06/20 09:52:40;;;;;;;5.70;4.53;;;;;;;29.15;70.87;100666.28;4997768;28;20030;-73
2023/06/20 09:55:11;;;;;;;2.92;2.17;;;;;;;29.42;65.99;100647.16;4989132;28;20034;-72
2023/06/20 09:57:49;;;;;;;4.25;2.08;;;;;;;29.76;62.75;100655.41;4987933;28;20034;-72
2023/06/20 10:00:16;;;;;;;2.50;2.05;;;;;;;29.57;57.18;100664.03;4987623;28;20038;-73
2023/06/20 10:02:52;;;;;;;3.78;2.45;;;;;;;29.18;61.70;100633.66;5013035;28;20070;-74
2023/06/20 10:05:19;;;;;;;3.47;2.53;;;;;;;29.84;58.09;100571.84;4985535;28;20045;-73
2023/06/20 10:07:47;;;;;;;2.83;2.00;;;;;;;28.25;57.91;100582.69;4989453;28;20038;-74
2023/06/20 10:10:14;;;;;;;5.68;2.15;;;;;;;27.48;57.66;100676.97;4989262;28;20034;-73
2023/06/20 10:12:42;;;;;;;3.33;1.67;;;;;;;26.08;60.34;100666.06;4971872;28;20104;-73
2023/06/20 10:15:09;;;;;;;2.67;1.67;;;;;;;27.24;59.78;100585.16;4988843;28;20056;-73
2023/06/20 10:17:40;;;;;;;2.47;1.52;;;;;;;27.69;55.73;100655.78;4989573;28;20041;-73
2023/06/20 10:20:09;;;;;;;1.88;1.27;;;;;;;27.76;58.18;100602.31;4988476;28;20045;-74
2023/06/20 10:22:42;;;;;;;3.58;2.20;;;;;;;27.30;55.57;100575.78;4989654;28;20071;-75
2023/06/20 10:25:14;;;;;;;3.35;2.13;;;;;;;27.44;59.01;100650.31;4988608;28;20047;-75
2023/06/20 10:28:02;;;;;;;3.30;1.88;;;;;;;27.34;57.91;100509.94;4988720;28;20532;-75
2023/06/20 10:30:46;;;;;;;3.65;2.08;;;;;;;29.10;61.17;100663.06;4988852;28;20038;-73
2023/06/20 10:33:13;;;;;;;2.55;1.65;;;;;;;29.58;57.94;100596.31;4988405;28;20541;-74
2023/06/20 10:36:05;;;;;;;2.60;1.80;;;;;;;30.38;55.28;100675.91;4988854;28;20092;-72
2023/06/20 10:38:39;;;;;;;4.53;2.40;;;;;;;29.43;53.34;100568.63;4988783;28;20096;-75
2023/06/20 10:41:15;;;;;;;2.65;1.90;;;;;;;29.66;51.40;100590.31;4987142;28;20038;-73
2023/06/20 10:43:52;;;;;;;2.08;1.33;;;;;;;30.73;54.48;100673.09;4986663;28;20081;-72
2023/06/20 10:46:39;;;;;;;2.53;1.83;;;;;;;30.89;51.70;100648.34;4988755;28;20033;-73
2023/06/20 10:49:06;;;;;;;3.20;1.95;;;;;;;29.94;49.67;100656.72;4984487;28;20101;-73
2023/06/20 10:51:45;;;;;;;1.80;1.13;;;;;;;28.93;48.64;100559.75;4973292;28;20034;-73
2023/06/20 10:54:12;;;;;;;3.55;1.25;;;;;;;30.50;51.45;100656.81;4987764;28;20042;-75
2023/06/20 10:56:37;;;;;;;4.60;2.05;;;;;;;30.68;48.13;100656.34;4985802;28;20050;-74
2023/06/20 10:59:11;;;;;;;2.60;1.60;;;;;;;30.99;48.75;100649.31;4987272;28;20190;-74
2023/06/20 11:01:37;;;;;;;4.13;2.40;;;;;;;31.04;49.54;100611.00;4987270;28;20136;-75
2023/06/20 11:04:08;;;;;;;1.95;1.23;;;;;;;30.58;44.65;100583.09;4988629;28;20032;-74
2023/06/20 11:06:35;;;;;;;2.30;1.52;;;;;;;31.00;46.05;100621.25;4987050;28;20089;-73
2023/06/20 11:09:00;;;;;;;3.08;1.92;;;;;;;31.51;45.92;100625.16;4988164;28;20116;-73
2023/06/20 11:11:38;;;;;;;3.70;1.50;;;;;;;30.13;43.80;100639.03;4988579;28;20034;-72
2023/06/20 11:14:14;;;;;;;3.42;1.73;;;;;;;30.04;46.20;100529.66;4988238;28;20045;-73
2023/06/20 11:16:41;;;;;;;3.30;1.25;;;;;;;28.68;46.26;100543.66;4988556;28;20120;-74
2023/06/20 11:19:08;;;;;;;2.08;1.48;;;;;;;29.88;45.79;100525.47;4988215;28;20062;-72
2023/06/20 11:21:34;;;;;;;2.15;1.42;;;;;;;29.54;45.82;100542.59;4987144;28;20072;-73
2023/06/20 11:24:02;;;;;;;2.42;1.42;;;;;;;29.14;47.73;100626.72;4988216;28;20042;-73